map of PTZ home
PTZ - Airport
Location
City:  Shell, Pastaza, Ecuador
Name:Rio Amazonas
ICAO:SESM
IATA:PTZ

Details
Type:Airport (Aerodrome, Airfield)
Latitude:130'19"S (-1.505238)
Longitude:7803'46"W (-78.062674)
Datum:WGS 1984
Elevation:3465 ft (1056 m)
Variation:3.71W (WMM2015 magnetic declination)
-0.16 annual change
Runways:1
Longest:5052 × 82 ft (1540 × 25 m), paved

Time
Time Zone:UTC-5
Local Time:

Weather
METAR:SESM 201529Z 33006KT 2000 -RA BKN030 OVC100 20/19 Q1020 RMK A3014

Related Locations
Nearby:
Farthest:SEQ: 12437 mi / 20015 km
Sungai Pakning Bengkalis, RI, ID

Find:

   beyond  
but within

Other Information
Maps:
NOTAMs:
Links:
Sources:

  
  • flag of Ecuador
  • flag of Pastaza
  

Sectional Chart

Flight Planning
at skyvector.com

Satellite Image

Google Maps Satellite view

 

Copyright © 2004-2019 Karl L. Swartz. All rights reserved.
The Great Circle Mapper name and logo are trademarks of the Great Circle Mapper.
All other trademarks mentioned herein belong to their respective owners.
Please see credits for attibutions and further copyright information.

  Follow gcmap on Facebook Follow gcmap on Twitter Follow gcmap on Google+ GCmap on LinkedIn

hCard Microformat

Geo Microformat